Time;durP1;ratioP1;P1;durP2;ratioP2;P2;SDS_P1;SDS_P2;PMS_P1;PMS_P2;Temp;Humidity;BMP_temperature;BMP_pressure;BME280_temperature;BME280_humidity;BME280_pressure;Samples;Min_cycle;Max_cycle;Signal;HPM_P1;HPM_P2
2021/07/05 00:03:40;;;;;;;7.90;2.10;;;22.00;99.90;;;;;;12073989;28;20097;-59
2021/07/05 00:09:28;;;;;;;11.10;2.15;;;22.00;99.90;;;;;;12077961;28;20048;-60
2021/07/05 00:15:19;;;;;;;11.82;2.10;;;22.00;99.90;;;;;;12079631;28;20044;-59
2021/07/05 08:00:29;;;;;;;4.88;3.55;;;19.30;99.90;;;;;;11959716;27;20407;-65
2021/07/05 08:06:16;;;;;;;3.20;2.85;;;19.90;99.90;;;;;;11987158;28;20143;-65
2021/07/05 08:12:05;;;;;;;3.35;2.50;;;20.80;99.90;;;;;;12018781;28;20778;-66
2021/07/05 08:17:55;;;;;;;3.85;2.08;;;21.50;99.90;;;;;;12030466;28;20523;-66
2021/07/05 08:23:42;;;;;;;5.07;2.30;;;21.80;99.90;;;;;;12026134;28;20040;-66
2021/07/05 08:29:29;;;;;;;4.45;2.00;;;22.20;99.90;;;;;;12055598;28;20037;-64
2021/07/05 08:35:18;;;;;;;4.00;1.70;;;22.30;99.90;;;;;;12075977;28;20420;-67
2021/07/05 08:41:05;;;;;;;1.80;1.63;;;22.40;99.90;;;;;;12076903;28;20424;-65
2021/07/05 08:46:55;;;;;;;4.00;1.70;;;22.40;99.90;;;;;;12077649;28;20054;-65
2021/07/05 08:52:44;;;;;;;1.10;1.00;;;22.30;99.90;;;;;;12077705;28;20041;-65
2021/07/05 08:58:31;;;;;;;2.70;0.77;;;22.40;99.90;;;;;;12078211;28;20067;-65
2021/07/05 09:04:19;;;;;;;0.60;0.60;;;22.20;99.90;;;;;;12059776;28;20053;-64
2021/07/05 09:10:09;;;;;;;1.02;0.70;;;22.00;99.90;;;;;;11995773;28;20041;-65
2021/07/05 09:15:57;;;;;;;5.22;0.70;;;22.10;99.90;;;;;;11984526;28;20053;-65
2021/07/05 09:21:50;;;;;;;0.77;0.52;;;22.30;99.90;;;;;;11986329;28;20044;-65
2021/07/05 09:27:40;;;;;;;0.60;0.60;;;22.60;99.90;;;;;;11983558;28;20052;-59
2021/07/05 09:33:29;;;;;;;1.98;0.70;;;22.70;99.90;;;;;;11996921;28;20084;-59
2021/07/05 09:39:18;;;;;;;3.30;0.60;;;22.80;99.90;;;;;;11993917;28;20049;-59
2021/07/05 09:45:10;;;;;;;3.88;0.75;;;22.80;99.90;;;;;;11984441;28;20052;-59
2021/07/05 09:51:05;;;;;;;1.90;0.47;;;22.90;99.90;;;;;;11993560;28;20041;-59
2021/07/05 09:56:53;;;;;;;0.80;0.38;;;22.70;99.90;;;;;;12006397;28;20041;-60
2021/07/05 10:02:57;;;;;;;2.28;0.90;;;22.70;99.90;;;;;;12001823;28;20053;-59
2021/07/05 10:08:44;;;;;;;2.90;0.80;;;22.70;99.90;;;;;;11998881;28;20052;-60
2021/07/05 10:14:31;;;;;;;0.70;0.40;;;22.40;99.90;;;;;;11987562;28;20482;-59
2021/07/05 10:20:22;;;;;;;8.07;0.73;;;22.30;99.90;;;;;;11979882;28;20057;-60
2021/07/05 10:26:09;;;;;;;0.63;0.43;;;22.60;99.90;;;;;;11989426;28;20119;-60
2021/07/05 10:31:56;;;;;;;0.60;0.60;;;23.10;99.90;;;;;;11991932;28;20041;-59
2021/07/05 10:37:51;;;;;;;4.50;0.70;;;23.30;99.90;;;;;;11986115;28;20060;-58
2021/07/05 10:43:49;;;;;;;1.42;1.00;;;23.30;99.90;;;;;;11976995;28;20044;-71
2021/07/05 10:49:47;;;;;;;0.80;0.68;;;23.40;99.90;;;;;;11996690;28;20053;-70
2021/07/05 10:55:41;;;;;;;0.88;0.88;;;23.10;99.90;;;;;;11977919;28;20488;-73
2021/07/05 11:01:38;;;;;;;3.92;0.45;;;23.10;99.90;;;;;;11908620;28;20053;-72
2021/07/05 11:07:43;;;;;;;0.75;0.60;;;23.20;99.90;;;;;;11918886;28;20041;-72
2021/07/05 11:13:32;;;;;;;0.52;0.50;;;23.30;99.90;;;;;;11916903;28;20421;-72
2021/07/05 11:19:35;;;;;;;1.63;0.60;;;23.30;99.90;;;;;;11913284;28;20037;-72
2021/07/05 11:25:28;;;;;;;0.50;0.50;;;23.30;99.90;;;;;;11917140;28;21376;-72
2021/07/05 11:31:53;;;;;;;0.85;0.70;;;23.90;99.90;;;;;;11916750;28;20549;-72
2021/07/05 11:37:41;;;;;;;2.05;0.70;;;24.00;99.90;;;;;;11916454;28;20061;-72
2021/07/05 11:43:53;;;;;;;0.40;0.40;;;23.70;99.90;;;;;;11919041;28;20068;-73
2021/07/05 11:49:40;;;;;;;1.02;0.40;;;23.90;99.90;;;;;;11908657;28;20156;-73
2021/07/05 11:55:31;;;;;;;1.38;0.50;;;24.20;99.90;;;;;;11927061;28;20483;-73
2021/07/05 12:01:18;;;;;;;0.57;0.47;;;24.00;99.90;;;;;;12016056;28;20528;-72
2021/07/05 12:07:07;;;;;;;0.40;0.40;;;24.00;99.90;;;;;;12011681;28;20051;-72
2021/07/05 12:13:11;;;;;;;1.98;0.60;;;24.30;99.90;;;;;;12018883;28;20052;-72
2021/07/05 12:18:58;;;;;;;;;;;24.30;99.90;;;;;;12018432;28;20528;-72
2021/07/05 12:24:46;;;;;;;0.30;0.30;;;24.60;99.90;;;;;;12015627;28;19920;-72
2021/07/05 12:30:36;;;;;;;0.57;0.40;;;24.50;99.90;;;;;;12016299;28;20048;-73
2021/07/05 12:36:24;;;;;;;2.08;0.35;;;24.60;99.90;;;;;;12017924;28;20044;-72
2021/07/05 12:42:31;;;;;;;0.40;0.30;;;24.60;99.90;;;;;;12017549;28;20044;-64
2021/07/05 12:48:21;;;;;;;1.42;0.40;;;24.30;99.90;;;;;;12027426;28;20044;-61
2021/07/05 12:54:17;;;;;;;0.35;0.35;;;24.20;99.90;;;;;;12024322;28;20182;-63
2021/07/05 13:00:08;;;;;;;0.40;0.40;;;24.20;99.90;;;;;;12028536;28;20489;-63
2021/07/05 13:06:05;;;;;;;1.23;0.40;;;24.00;99.90;;;;;;12029768;28;20087;-56
2021/07/05 13:11:53;;;;;;;1.17;0.50;;;24.00;99.90;;;;;;12030686;28;20053;-56
2021/07/05 13:17:40;;;;;;;0.32;0.32;;;24.40;99.90;;;;;;12026198;28;20526;-54
2021/07/05 13:23:40;;;;;;;0.52;0.32;;;24.40;99.90;;;;;;12026757;28;20057;-56
2021/07/05 13:29:28;;;;;;;0.68;0.43;;;24.30;99.90;;;;;;12026168;28;20048;-57
2021/07/05 13:35:15;;;;;;;1.83;0.40;;;23.90;99.90;;;;;;12030180;28;20051;-56
2021/07/05 13:41:05;;;;;;;0.75;0.35;;;23.80;99.90;;;;;;12027668;28;20049;-56
2021/07/05 13:47:17;;;;;;;0.47;0.30;;;23.60;99.90;;;;;;12027143;28;20084;-57
2021/07/05 13:53:17;;;;;;;0.40;0.40;;;23.80;99.90;;;;;;12028432;28;20056;-56
2021/07/05 13:59:05;;;;;;;0.80;0.50;;;23.90;99.90;;;;;;12030238;28;20047;-56
2021/07/05 14:04:52;;;;;;;0.45;0.45;;;24.00;99.90;;;;;;12003656;22;20141;-82
2021/07/05 14:10:41;;;;;;;1.23;0.40;;;23.90;99.90;;;;;;11901267;28;20516;-80
2021/07/05 14:16:33;;;;;;;1.40;0.60;;;24.00;99.90;;;;;;11901004;28;20061;-78
2021/07/05 14:22:20;;;;;;;1.00;0.47;;;24.00;99.90;;;;;;11896839;28;20054;-77
2021/07/05 14:28:08;;;;;;;1.60;0.60;;;23.90;99.90;;;;;;11900291;28;20103;-78
2021/07/05 14:33:56;;;;;;;2.05;0.50;;;24.00;99.90;;;;;;11900535;28;20058;-78
2021/07/05 14:39:43;;;;;;;0.30;0.30;;;24.00;99.90;;;;;;11897675;28;20057;-77
2021/07/05 14:45:30;;;;;;;0.30;0.30;;;24.10;99.90;;;;;;11888551;28;20687;-77
2021/07/05 14:51:18;;;;;;;0.93;0.50;;;24.40;99.90;;;;;;11898123;28;20094;-78
2021/07/05 14:57:15;;;;;;;0.57;0.43;;;24.30;99.80;;;;;;11901912;28;20065;-78
2021/07/05 15:03:05;;;;;;;0.50;0.40;;;24.20;99.90;;;;;;11897287;28;20052;-78
2021/07/05 15:08:53;;;;;;;1.83;0.60;;;24.50;99.90;;;;;;11897045;28;20143;-77
2021/07/05 15:14:40;;;;;;;0.73;0.50;;;24.80;99.40;;;;;;11896837;28;20606;-77
2021/07/05 15:20:30;;;;;;;0.30;0.30;;;25.00;98.70;;;;;;11897517;28;20080;-76
2021/07/05 15:26:19;;;;;;;1.35;0.55;;;24.50;97.40;;;;;;11898023;28;20050;-77
2021/07/05 15:32:06;;;;;;;0.40;0.40;;;24.50;96.10;;;;;;11900101;28;20385;-79
2021/07/05 15:37:54;;;;;;;0.35;0.30;;;24.50;97.10;;;;;;11900640;28;20057;-77
2021/07/05 15:43:46;;;;;;;0.65;0.40;;;24.20;97.00;;;;;;11899163;28;20050;-79
2021/07/05 15:49:33;;;;;;;4.10;0.50;;;24.30;97.50;;;;;;11896386;28;20073;-78
2021/07/05 15:55:21;;;;;;;0.68;0.40;;;24.40;97.10;;;;;;11898704;28;20115;-78
2021/07/05 16:01:09;;;;;;;0.50;0.50;;;24.50;97.50;;;;;;11894586;28;20544;-77
2021/07/05 16:06:56;;;;;;;2.10;0.50;;;24.70;97.20;;;;;;11893132;28;20112;-77
2021/07/05 16:12:44;;;;;;;1.38;0.47;;;24.50;96.30;;;;;;11892299;28;20536;-77
2021/07/05 16:18:32;;;;;;;1.45;0.32;;;24.30;96.80;;;;;;11892467;28;20042;-76
2021/07/05 16:24:19;;;;;;;0.30;0.30;;;24.30;96.60;;;;;;11909115;28;20049;-78
2021/07/05 16:30:07;;;;;;;2.30;0.38;;;24.40;96.20;;;;;;11907149;28;20053;-77
2021/07/05 16:35:56;;;;;;;0.35;0.35;;;24.30;96.60;;;;;;11903958;28;20080;-78
2021/07/05 16:41:42;;;;;;;0.73;0.73;;;24.30;95.00;;;;;;11903541;28;20042;-79
2021/07/05 16:47:30;;;;;;;1.45;0.40;;;24.00;94.40;;;;;;11900938;28;20425;-77
2021/07/05 16:53:18;;;;;;;0.50;0.50;;;24.10;94.50;;;;;;11903888;28;20061;-77
2021/07/05 16:59:10;;;;;;;3.38;0.40;;;24.00;94.30;;;;;;11902122;28;20696;-78
2021/07/05 17:04:57;;;;;;;1.75;0.85;;;23.90;94.50;;;;;;11902464;28;20045;-78
2021/07/05 17:10:46;;;;;;;2.83;0.43;;;23.90;95.00;;;;;;11898175;28;20275;-77
2021/07/05 17:16:33;;;;;;;1.50;0.50;;;24.00;95.30;;;;;;11902319;28;20054;-78
2021/07/05 17:22:19;;;;;;;1.02;0.40;;;24.00;94.80;;;;;;11900006;28;20050;-78
2021/07/05 17:28:08;;;;;;;2.80;0.70;;;23.90;94.70;;;;;;11897636;28;20408;-77
2021/07/05 17:33:55;;;;;;;3.05;0.60;;;23.80;95.60;;;;;;11898376;28;20062;-79
2021/07/05 17:39:42;;;;;;;2.35;0.50;;;23.90;95.30;;;;;;11902964;28;20664;-80
2021/07/05 17:45:31;;;;;;;3.95;0.80;;;23.90;96.00;;;;;;11899919;28;20054;-77
2021/07/05 17:51:18;;;;;;;2.25;0.60;;;23.90;95.80;;;;;;11896308;28;20096;-77
2021/07/05 17:57:05;;;;;;;2.28;0.88;;;23.80;96.00;;;;;;11901143;28;20050;-78
2021/07/05 18:02:54;;;;;;;2.08;0.90;;;23.70;97.30;;;;;;11896156;28;20050;-77
2021/07/05 18:08:44;;;;;;;1.70;0.82;;;23.70;98.00;;;;;;11890117;28;20532;-77
2021/07/05 18:14:30;;;;;;;1.17;0.80;;;23.60;98.20;;;;;;11892013;28;22191;-77
2021/07/05 18:20:19;;;;;;;3.10;0.80;;;23.60;98.20;;;;;;11895943;28;20505;-77
2021/07/05 18:26:07;;;;;;;2.28;0.90;;;23.60;99.90;;;;;;11898827;28;20540;-78
2021/07/05 18:31:54;;;;;;;5.45;0.98;;;23.70;99.90;;;;;;11895619;28;20860;-78
2021/07/05 18:37:44;;;;;;;4.22;0.80;;;23.60;99.90;;;;;;11894872;28;20049;-78
2021/07/05 18:43:31;;;;;;;1.40;0.82;;;23.60;99.90;;;;;;11893543;28;20060;-78
2021/07/05 18:49:18;;;;;;;0.82;0.80;;;23.60;99.90;;;;;;11892067;28;20053;-78
2021/07/05 18:55:10;;;;;;;4.05;0.95;;;23.60;99.90;;;;;;11896622;28;20094;-77
2021/07/05 19:00:57;;;;;;;4.70;1.30;;;23.60;99.90;;;;;;11894297;28;20053;-76
2021/07/05 19:06:44;;;;;;;6.10;1.20;;;23.60;99.90;;;;;;11870298;28;20070;-78
2021/07/05 19:12:32;;;;;;;4.68;1.33;;;23.60;99.90;;;;;;11891739;28;20152;-77
2021/07/05 19:18:19;;;;;;;2.10;0.88;;;23.60;99.90;;;;;;11894640;28;20421;-77
2021/07/05 19:24:07;;;;;;;3.15;0.85;;;23.60;99.90;;;;;;11895541;28;20056;-77
2021/07/05 19:29:56;;;;;;;2.88;0.90;;;23.50;99.90;;;;;;11899484;28;20069;-77
2021/07/05 19:35:43;;;;;;;4.35;0.77;;;23.50;99.90;;;;;;11896335;28;20137;-78
2021/07/05 19:41:30;;;;;;;3.88;1.10;;;23.50;99.90;;;;;;11897417;28;20441;-77
2021/07/05 19:47:19;;;;;;;3.90;1.50;;;23.40;99.90;;;;;;11898445;28;20049;-77
2021/07/05 19:53:08;;;;;;;2.58;1.30;;;23.50;99.90;;;;;;11895289;28;20057;-77
2021/07/05 19:58:55;;;;;;;2.70;1.30;;;23.50;99.90;;;;;;11881343;28;20111;-77
2021/07/05 20:04:43;;;;;;;2.25;1.05;;;23.50;99.90;;;;;;11892943;28;20065;-77
2021/07/05 20:10:30;;;;;;;2.08;1.00;;;23.50;99.90;;;;;;11896350;28;20452;-77
2021/07/05 20:16:17;;;;;;;3.25;0.90;;;23.50;99.90;;;;;;11895273;28;20060;-77
2021/07/05 20:22:05;;;;;;;4.57;1.40;;;23.40;99.90;;;;;;11891514;28;20054;-75
2021/07/05 20:27:53;;;;;;;3.00;0.80;;;23.40;99.90;;;;;;11894904;28;20050;-77
2021/07/05 20:33:44;;;;;;;6.63;1.00;;;23.40;99.90;;;;;;11892030;28;20068;-77
2021/07/05 20:39:32;;;;;;;1.58;1.15;;;23.40;99.90;;;;;;11890004;28;20081;-78
2021/07/05 20:45:22;;;;;;;2.50;1.00;;;23.40;99.90;;;;;;11894498;28;20691;-78
2021/07/05 20:51:09;;;;;;;3.85;1.27;;;23.40;99.90;;;;;;11895036;28;20139;-77
2021/07/05 20:56:57;;;;;;;2.42;1.00;;;23.40;99.90;;;;;;11897724;28;20058;-77
2021/07/05 21:02:44;;;;;;;6.45;1.25;;;23.40;99.90;;;;;;11892811;28;20199;-77
2021/07/05 21:08:31;;;;;;;4.40;1.65;;;23.40;99.90;;;;;;11897099;28;20104;-78
2021/07/05 21:14:19;;;;;;;2.88;1.35;;;23.40;99.90;;;;;;11899810;28;20049;-78
2021/07/05 21:20:09;;;;;;;7.32;1.30;;;23.30;99.90;;;;;;11899023;28;20052;-78
2021/07/05 21:25:57;;;;;;;8.25;1.48;;;23.30;99.90;;;;;;11894875;28;20181;-78
2021/07/05 21:31:45;;;;;;;2.45;1.30;;;23.20;99.90;;;;;;11898039;28;20108;-78
2021/07/05 21:37:33;;;;;;;5.57;1.55;;;23.20;99.90;;;;;;11899154;28;20050;-78
2021/07/05 21:43:20;;;;;;;3.47;1.40;;;23.20;99.90;;;;;;11893434;28;20104;-78
2021/07/05 21:49:08;;;;;;;2.90;1.40;;;23.10;99.90;;;;;;11891566;28;20061;-78
2021/07/05 21:54:55;;;;;;;2.40;1.20;;;23.10;99.90;;;;;;11899790;28;20060;-77
2021/07/05 22:00:42;;;;;;;4.72;1.60;;;23.10;99.90;;;;;;11891998;28;20038;-77
2021/07/05 22:06:30;;;;;;;3.00;1.60;;;23.00;99.90;;;;;;11889727;28;20081;-76
2021/07/05 22:12:17;;;;;;;3.83;1.23;;;22.90;99.90;;;;;;11893390;28;20054;-77
